Terminal Aerodrome Forecast
Issued by NWS Mobile, AL

Home | Current Version | Previous Version | Text Only | Print | Product List | Glossary On
Versions: 1 2 3 4 5 6 7 8 9 10 11 12 13 14 15 16 17 18 19 20 21 22
000
FTUS44 KMOB 300532
TAFMOB
TAF
KMOB 300532Z 3006/3106 00000KT P6SM BKN025 BKN050
     FM301000 00000KT 5SM BR SCT025
     FM301300 04004KT P6SM SCT250=

USA.gov is the U.S. government's official web portal to all federal, state and local government web resources and services.